sensor_id;sensor_type;location;lat;lon;timestamp;P1;durP1;ratioP1;P2;durP2;ratioP2
59986;SDS011;46181;51.498;5.392;2023-05-10T00:03:30;0.48;;;0.22;;
59986;SDS011;46181;51.498;5.392;2023-05-10T00:08:00;0;;;0;;
59986;SDS011;46181;51.498;5.392;2023-05-10T00:12:30;0.368;;;0.368;;
59986;SDS011;46181;51.498;5.392;2023-05-10T00:17:00;0.056;;;0.056;;
59986;SDS011;46181;51.498;5.392;2023-05-10T00:21:30;0.016;;;0.016;;
59986;SDS011;46181;51.498;5.392;2023-05-10T00:26:00;0.184;;;0.124;;
59986;SDS011;46181;51.498;5.392;2023-05-10T00:30:30;0.1;;;0.1;;
59986;SDS011;46181;51.498;5.392;2023-05-10T00:35:00;0.092;;;0.092;;
59986;SDS011;46181;51.498;5.392;2023-05-10T00:39:30;0.456;;;0.1;;
59986;SDS011;46181;51.498;5.392;2023-05-10T00:44:00;0.108;;;0.108;;
59986;SDS011;46181;51.498;5.392;2023-05-10T00:48:30;0.132;;;0.132;;
59986;SDS011;46181;51.498;5.392;2023-05-10T00:53:00;0.1;;;0.1;;
59986;SDS011;46181;51.498;5.392;2023-05-10T00:57:30;0.1;;;0.1;;
59986;SDS011;46181;51.498;5.392;2023-05-10T01:02:01;0.004;;;0.004;;
59986;SDS011;46181;51.498;5.392;2023-05-10T01:06:30;0.164;;;0.164;;
59986;SDS011;46181;51.498;5.392;2023-05-10T01:11:00;0.268;;;0.192;;
59986;SDS011;46181;51.498;5.392;2023-05-10T01:15:30;2;;;0.556;;
59986;SDS011;46181;51.498;5.392;2023-05-10T01:20:00;0.1;;;0.1;;
59986;SDS011;46181;51.498;5.392;2023-05-10T01:29:15;0.108;;;0.108;;
59986;SDS011;46181;51.498;5.392;2023-05-10T01:33:30;0.152;;;0.152;;
59986;SDS011;46181;51.498;5.392;2023-05-10T01:38:03;0.208;;;0.208;;
59986;SDS011;46181;51.498;5.392;2023-05-10T01:42:31;0.1;;;0.1;;
59986;SDS011;46181;51.498;5.392;2023-05-10T01:47:01;0.856;;;0.292;;
59986;SDS011;46181;51.498;5.392;2023-05-10T01:51:33;0.28;;;0.28;;
59986;SDS011;46181;51.498;5.392;2023-05-10T01:56:00;0.1;;;0.1;;
59986;SDS011;46181;51.498;5.392;2023-05-10T02:00:30;0.1;;;0.1;;
59986;SDS011;46181;51.498;5.392;2023-05-10T02:05:00;0.644;;;0.284;;
59986;SDS011;46181;51.498;5.392;2023-05-10T02:09:30;0.208;;;0.208;;
59986;SDS011;46181;51.498;5.392;2023-05-10T02:14:01;0.576;;;0.52;;
59986;SDS011;46181;51.498;5.392;2023-05-10T02:18:30;1.376;;;1.164;;
59986;SDS011;46181;51.498;5.392;2023-05-10T02:23:00;0.984;;;0.596;;
59986;SDS011;46181;51.498;5.392;2023-05-10T02:27:31;0.188;;;0.188;;
59986;SDS011;46181;51.498;5.392;2023-05-10T02:32:00;0.848;;;0.46;;
59986;SDS011;46181;51.498;5.392;2023-05-10T02:36:31;0.764;;;0.764;;
59986;SDS011;46181;51.498;5.392;2023-05-10T02:41:00;1.104;;;0.74;;
59986;SDS011;46181;51.498;5.392;2023-05-10T02:45:31;0.248;;;0.248;;
59986;SDS011;46181;51.498;5.392;2023-05-10T02:50:00;0.432;;;0.432;;
59986;SDS011;46181;51.498;5.392;2023-05-10T02:54:31;0.924;;;0.444;;
59986;SDS011;46181;51.498;5.392;2023-05-10T02:59:00;0.684;;;0.392;;
59986;SDS011;46181;51.498;5.392;2023-05-10T03:03:30;0.688;;;0.464;;
59986;SDS011;46181;51.498;5.392;2023-05-10T03:08:00;1.288;;;0.644;;
59986;SDS011;46181;51.498;5.392;2023-05-10T03:12:31;0.2;;;0.2;;
59986;SDS011;46181;51.498;5.392;2023-05-10T03:17:04;0.172;;;0.172;;
59986;SDS011;46181;51.498;5.392;2023-05-10T03:21:30;0.568;;;0.568;;
59986;SDS011;46181;51.498;5.392;2023-05-10T03:26:00;1.148;;;0.952;;
59986;SDS011;46181;51.498;5.392;2023-05-10T03:30:30;0.376;;;0.288;;
59986;SDS011;46181;51.498;5.392;2023-05-10T03:35:00;0.244;;;0.188;;
59986;SDS011;46181;51.498;5.392;2023-05-10T03:39:30;0.396;;;0.38;;
59986;SDS011;46181;51.498;5.392;2023-05-10T03:44:00;0.8;;;0.244;;
59986;SDS011;46181;51.498;5.392;2023-05-10T03:48:30;0.22;;;0.22;;
59986;SDS011;46181;51.498;5.392;2023-05-10T03:53:00;0.584;;;0.584;;
59986;SDS011;46181;51.498;5.392;2023-05-10T03:57:30;0.42;;;0.42;;
59986;SDS011;46181;51.498;5.392;2023-05-10T04:02:00;0.22;;;0.212;;
59986;SDS011;46181;51.498;5.392;2023-05-10T04:06:30;1.18;;;0.624;;
59986;SDS011;46181;51.498;5.392;2023-05-10T04:11:08;0.632;;;0.624;;
59986;SDS011;46181;51.498;5.392;2023-05-10T04:15:30;0.792;;;0.656;;
59986;SDS011;46181;51.498;5.392;2023-05-10T04:20:00;1.208;;;0.62;;
59986;SDS011;46181;51.498;5.392;2023-05-10T04:24:30;1.74;;;1.256;;
59986;SDS011;46181;51.498;5.392;2023-05-10T04:29:00;1.776;;;0.94;;
59986;SDS011;46181;51.498;5.392;2023-05-10T04:33:31;1.172;;;0.868;;
59986;SDS011;46181;51.498;5.392;2023-05-10T04:38:00;0.776;;;0.544;;
59986;SDS011;46181;51.498;5.392;2023-05-10T04:42:30;1.08;;;0.98;;
59986;SDS011;46181;51.498;5.392;2023-05-10T04:47:00;0.276;;;0.276;;
59986;SDS011;46181;51.498;5.392;2023-05-10T04:51:30;1.484;;;0.456;;
59986;SDS011;46181;51.498;5.392;2023-05-10T04:56:00;1.02;;;0.724;;
59986;SDS011;46181;51.498;5.392;2023-05-10T05:00:30;0.44;;;0.44;;
59986;SDS011;46181;51.498;5.392;2023-05-10T05:05:00;0.752;;;0.58;;
59986;SDS011;46181;51.498;5.392;2023-05-10T05:09:30;0.736;;;0.408;;
59986;SDS011;46181;51.498;5.392;2023-05-10T05:14:00;2.796;;;0.5;;
59986;SDS011;46181;51.498;5.392;2023-05-10T05:18:30;0.3;;;0.224;;
59986;SDS011;46181;51.498;5.392;2023-05-10T05:23:00;1.992;;;0.688;;
59986;SDS011;46181;51.498;5.392;2023-05-10T05:27:30;1.712;;;0.632;;
59986;SDS011;46181;51.498;5.392;2023-05-10T05:32:00;0.1;;;0.1;;
59986;SDS011;46181;51.498;5.392;2023-05-10T05:36:30;0.244;;;0.244;;
59986;SDS011;46181;51.498;5.392;2023-05-10T05:41:00;0.88;;;0.872;;
59986;SDS011;46181;51.498;5.392;2023-05-10T05:45:30;0.1;;;0.1;;
59986;SDS011;46181;51.498;5.392;2023-05-10T05:50:00;0.364;;;0.332;;
59986;SDS011;46181;51.498;5.392;2023-05-10T05:54:30;1.308;;;0.316;;
59986;SDS011;46181;51.498;5.392;2023-05-10T05:59:00;0.62;;;0.26;;
59986;SDS011;46181;51.498;5.392;2023-05-10T06:03:30;0.512;;;0.496;;
59986;SDS011;46181;51.498;5.392;2023-05-10T06:08:00;0.72;;;0.6;;
59986;SDS011;46181;51.498;5.392;2023-05-10T06:12:30;0.468;;;0.428;;
59986;SDS011;46181;51.498;5.392;2023-05-10T06:17:00;1.332;;;0.628;;
59986;SDS011;46181;51.498;5.392;2023-05-10T06:21:30;1.852;;;0.54;;
59986;SDS011;46181;51.498;5.392;2023-05-10T06:26:00;0.32;;;0.32;;
59986;SDS011;46181;51.498;5.392;2023-05-10T06:30:30;1.148;;;0.34;;
59986;SDS011;46181;51.498;5.392;2023-05-10T06:35:00;0.156;;;0.156;;
59986;SDS011;46181;51.498;5.392;2023-05-10T06:39:30;0.424;;;0.32;;
59986;SDS011;46181;51.498;5.392;2023-05-10T06:44:00;0.104;;;0.104;;
59986;SDS011;46181;51.498;5.392;2023-05-10T06:48:30;0.924;;;0.856;;
59986;SDS011;46181;51.498;5.392;2023-05-10T06:53:00;1.148;;;0.416;;
59986;SDS011;46181;51.498;5.392;2023-05-10T06:57:30;0.364;;;0.272;;
59986;SDS011;46181;51.498;5.392;2023-05-10T07:02:00;0.508;;;0.496;;
59986;SDS011;46181;51.498;5.392;2023-05-10T07:06:30;0.496;;;0.384;;
59986;SDS011;46181;51.498;5.392;2023-05-10T07:11:04;0.372;;;0.34;;
59986;SDS011;46181;51.498;5.392;2023-05-10T07:15:30;0.176;;;0.176;;
59986;SDS011;46181;51.498;5.392;2023-05-10T07:20:00;0.164;;;0.164;;
59986;SDS011;46181;51.498;5.392;2023-05-10T07:24:31;0.8;;;0.624;;
59986;SDS011;46181;51.498;5.392;2023-05-10T07:29:00;0.132;;;0.132;;
59986;SDS011;46181;51.498;5.392;2023-05-10T07:33:30;0.3;;;0.3;;
59986;SDS011;46181;51.498;5.392;2023-05-10T07:38:00;0.552;;;0.324;;
59986;SDS011;46181;51.498;5.392;2023-05-10T07:42:30;0.376;;;0.376;;
59986;SDS011;46181;51.498;5.392;2023-05-10T07:47:00;0.212;;;0.212;;
59986;SDS011;46181;51.498;5.392;2023-05-10T07:51:30;0.172;;;0.148;;
59986;SDS011;46181;51.498;5.392;2023-05-10T07:56:19;0.252;;;0.252;;
59986;SDS011;46181;51.498;5.392;2023-05-10T08:00:30;0.232;;;0.232;;
59986;SDS011;46181;51.498;5.392;2023-05-10T08:05:00;0.1;;;0.1;;
59986;SDS011;46181;51.498;5.392;2023-05-10T08:09:30;0.1;;;0.1;;
59986;SDS011;46181;51.498;5.392;2023-05-10T08:14:01;0.288;;;0.276;;
59986;SDS011;46181;51.498;5.392;2023-05-10T08:18:30;0.36;;;0.36;;
59986;SDS011;46181;51.498;5.392;2023-05-10T08:23:00;0.1;;;0.1;;
59986;SDS011;46181;51.498;5.392;2023-05-10T08:27:30;0.2;;;0.2;;
59986;SDS011;46181;51.498;5.392;2023-05-10T08:32:00;0.1;;;0.1;;
59986;SDS011;46181;51.498;5.392;2023-05-10T08:36:30;0.132;;;0.1;;
59986;SDS011;46181;51.498;5.392;2023-05-10T08:41:01;0.2;;;0.2;;
59986;SDS011;46181;51.498;5.392;2023-05-10T08:45:31;0.212;;;0.2;;
59986;SDS011;46181;51.498;5.392;2023-05-10T08:50:00;0.812;;;0.4;;
59986;SDS011;46181;51.498;5.392;2023-05-10T08:54:30;0.1;;;0.1;;
59986;SDS011;46181;51.498;5.392;2023-05-10T08:59:00;0.1;;;0.1;;
59986;SDS011;46181;51.498;5.392;2023-05-10T09:03:31;0.668;;;0.536;;
59986;SDS011;46181;51.498;5.392;2023-05-10T09:08:00;7.780001;;;5.191999;;
59986;SDS011;46181;51.498;5.392;2023-05-10T09:12:31;7.987999;;;5.179999;;
59986;SDS011;46181;51.498;5.392;2023-05-10T09:17:01;7.856001;;;4.888001;;
59986;SDS011;46181;51.498;5.392;2023-05-10T09:21:31;9.348001;;;5.087999;;
59986;SDS011;46181;51.498;5.392;2023-05-10T09:26:07;8.415999;;;4.888;;
59986;SDS011;46181;51.498;5.392;2023-05-10T09:30:31;8.372;;;4.655999;;
59986;SDS011;46181;51.498;5.392;2023-05-10T09:35:01;7.076;;;4.452;;
59986;SDS011;46181;51.498;5.392;2023-05-10T09:39:34;8.872;;;5.147999;;
59986;SDS011;46181;51.498;5.392;2023-05-10T09:44:01;6.859999;;;5.420001;;
59986;SDS011;46181;51.498;5.392;2023-05-10T09:48:31;7.996001;;;4.868001;;
59986;SDS011;46181;51.498;5.392;2023-05-10T09:53:02;8.228001;;;5.488;;
59986;SDS011;46181;51.498;5.392;2023-05-10T09:57:31;6.38;;;4.563999;;
59986;SDS011;46181;51.498;5.392;2023-05-10T10:02:01;8.820001;;;4.452;;
59986;SDS011;46181;51.498;5.392;2023-05-10T10:06:31;5.688;;;2.876;;
59986;SDS011;46181;51.498;5.392;2023-05-10T10:11:01;5.556;;;2.548;;
59986;SDS011;46181;51.498;5.392;2023-05-10T10:15:31;4.116;;;2.396;;
59986;SDS011;46181;51.498;5.392;2023-05-10T10:20:01;6.160001;;;2.98;;
59986;SDS011;46181;51.498;5.392;2023-05-10T10:24:31;5.336;;;3.528;;
59986;SDS011;46181;51.498;5.392;2023-05-10T10:29:04;6.524001;;;3.728;;
59986;SDS011;46181;51.498;5.392;2023-05-10T10:33:46;8.116;;;4.344;;
59986;SDS011;46181;51.498;5.392;2023-05-10T10:38:01;6.944001;;;4.5;;
59986;SDS011;46181;51.498;5.392;2023-05-10T10:47:05;7.752001;;;4.376;;
59986;SDS011;46181;51.498;5.392;2023-05-10T10:51:32;6.62;;;4.063999;;
59986;SDS011;46181;51.498;5.392;2023-05-10T10:56:10;5.568;;;3.976;;
59986;SDS011;46181;51.498;5.392;2023-05-10T11:00:31;7.672001;;;4.588;;
59986;SDS011;46181;51.498;5.392;2023-05-10T11:05:01;6.211999;;;4.772001;;
59986;SDS011;46181;51.498;5.392;2023-05-10T11:09:31;9.14;;;6.204;;
59986;SDS011;46181;51.498;5.392;2023-05-10T11:14:06;12.424;;;7.544;;
59986;SDS011;46181;51.498;5.392;2023-05-10T11:18:31;11.344;;;8.799999;;
59986;SDS011;46181;51.498;5.392;2023-05-10T11:23:10;11.864;;;8.072001;;
59986;SDS011;46181;51.498;5.392;2023-05-10T11:27:31;11.892;;;8.952001;;
59986;SDS011;46181;51.498;5.392;2023-05-10T11:32:01;11.984;;;8.728;;
59986;SDS011;46181;51.498;5.392;2023-05-10T11:36:32;11.164;;;7.688;;
59986;SDS011;46181;51.498;5.392;2023-05-10T11:41:01;8.516;;;5.468;;
59986;SDS011;46181;51.498;5.392;2023-05-10T11:45:31;7.900001;;;6.159998;;
59986;SDS011;46181;51.498;5.392;2023-05-10T11:50:01;9.620001;;;7.044;;
59986;SDS011;46181;51.498;5.392;2023-05-10T11:54:31;8.932001;;;6.647999;;
59986;SDS011;46181;51.498;5.392;2023-05-10T11:59:01;18.616;;;7.544001;;
59986;SDS011;46181;51.498;5.392;2023-05-10T12:03:31;0.1;;;0.1;;
59986;SDS011;46181;51.498;5.392;2023-05-10T12:12:31;0.2;;;0.2;;
59986;SDS011;46181;51.498;5.392;2023-05-10T12:17:01;0.016;;;0.016;;
59986;SDS011;46181;51.498;5.392;2023-05-10T12:21:31;0.1;;;0.1;;
59986;SDS011;46181;51.498;5.392;2023-05-10T12:26:05;0.1;;;0.1;;
59986;SDS011;46181;51.498;5.392;2023-05-10T12:30:31;0.14;;;0.14;;
59986;SDS011;46181;51.498;5.392;2023-05-10T12:35:03;0.296;;;0.292;;
59986;SDS011;46181;51.498;5.392;2023-05-10T12:39:41;0.048;;;0.032;;
59986;SDS011;46181;51.498;5.392;2023-05-10T12:44:01;0;;;0;;
59986;SDS011;46181;51.498;5.392;2023-05-10T12:48:31;0.1;;;0.1;;
59986;SDS011;46181;51.498;5.392;2023-05-10T12:53:01;0.148;;;0.148;;
59986;SDS011;46181;51.498;5.392;2023-05-10T12:57:31;0.268;;;0.2;;
59986;SDS011;46181;51.498;5.392;2023-05-10T13:02:01;0.2;;;0.2;;
59986;SDS011;46181;51.498;5.392;2023-05-10T13:06:31;0.072;;;0.072;;
59986;SDS011;46181;51.498;5.392;2023-05-10T13:11:01;0.2;;;0.2;;
59986;SDS011;46181;51.498;5.392;2023-05-10T13:15:31;0.512;;;0.2;;
59986;SDS011;46181;51.498;5.392;2023-05-10T13:20:01;0.088;;;0.088;;
59986;SDS011;46181;51.498;5.392;2023-05-10T13:24:31;0.1;;;0.1;;
59986;SDS011;46181;51.498;5.392;2023-05-10T13:29:01;0.08;;;0.08;;
59986;SDS011;46181;51.498;5.392;2023-05-10T13:33:31;0.112;;;0.112;;
59986;SDS011;46181;51.498;5.392;2023-05-10T13:38:01;0.2;;;0.2;;
59986;SDS011;46181;51.498;5.392;2023-05-10T13:42:31;0.1;;;0.1;;
59986;SDS011;46181;51.498;5.392;2023-05-10T13:47:01;0.312;;;0.2;;
59986;SDS011;46181;51.498;5.392;2023-05-10T13:51:31;0.228;;;0.228;;
59986;SDS011;46181;51.498;5.392;2023-05-10T13:56:01;0.12;;;0.12;;
59986;SDS011;46181;51.498;5.392;2023-05-10T14:00:31;0.1;;;0.1;;
59986;SDS011;46181;51.498;5.392;2023-05-10T14:05:01;0.1;;;0.1;;
59986;SDS011;46181;51.498;5.392;2023-05-10T14:09:31;0.1;;;0.1;;
59986;SDS011;46181;51.498;5.392;2023-05-10T14:14:01;0.1;;;0.1;;
59986;SDS011;46181;51.498;5.392;2023-05-10T14:18:31;0.1;;;0.1;;
59986;SDS011;46181;51.498;5.392;2023-05-10T14:23:01;0.064;;;0.064;;
59986;SDS011;46181;51.498;5.392;2023-05-10T14:27:31;0.1;;;0.1;;
59986;SDS011;46181;51.498;5.392;2023-05-10T14:32:01;0.1;;;0.1;;
59986;SDS011;46181;51.498;5.392;2023-05-10T14:36:31;0;;;0;;
59986;SDS011;46181;51.498;5.392;2023-05-10T14:41:01;0.1;;;0.1;;
59986;SDS011;46181;51.498;5.392;2023-05-10T14:45:31;0.1;;;0.1;;
59986;SDS011;46181;51.498;5.392;2023-05-10T14:50:01;0.12;;;0.12;;
59986;SDS011;46181;51.498;5.392;2023-05-10T14:54:31;0.192;;;0.192;;
59986;SDS011;46181;51.498;5.392;2023-05-10T14:59:01;0.192;;;0.192;;
59986;SDS011;46181;51.498;5.392;2023-05-10T15:03:31;0.268;;;0.268;;
59986;SDS011;46181;51.498;5.392;2023-05-10T15:08:01;0.1;;;0.1;;
59986;SDS011;46181;51.498;5.392;2023-05-10T15:12:31;0.1;;;0.1;;
59986;SDS011;46181;51.498;5.392;2023-05-10T15:17:01;0.1;;;0.1;;
59986;SDS011;46181;51.498;5.392;2023-05-10T15:21:31;0.092;;;0.092;;
59986;SDS011;46181;51.498;5.392;2023-05-10T15:26:01;0;;;0;;
59986;SDS011;46181;51.498;5.392;2023-05-10T15:30:31;0.2;;;0.2;;
59986;SDS011;46181;51.498;5.392;2023-05-10T15:35:01;0.048;;;0.048;;
59986;SDS011;46181;51.498;5.392;2023-05-10T15:39:31;0;;;0;;
59986;SDS011;46181;51.498;5.392;2023-05-10T15:44:01;0.1;;;0.1;;
59986;SDS011;46181;51.498;5.392;2023-05-10T15:48:31;0.1;;;0.1;;
59986;SDS011;46181;51.498;5.392;2023-05-10T15:53:01;0.08;;;0.08;;
59986;SDS011;46181;51.498;5.392;2023-05-10T15:57:31;0.024;;;0.024;;
59986;SDS011;46181;51.498;5.392;2023-05-10T16:02:01;0;;;0;;
59986;SDS011;46181;51.498;5.392;2023-05-10T16:06:31;0.1;;;0.1;;
59986;SDS011;46181;51.498;5.392;2023-05-10T16:11:01;0.1;;;0.1;;
59986;SDS011;46181;51.498;5.392;2023-05-10T16:15:31;0.38;;;0.128;;
59986;SDS011;46181;51.498;5.392;2023-05-10T16:20:01;0.14;;;0.14;;
59986;SDS011;46181;51.498;5.392;2023-05-10T16:24:31;0;;;0;;
59986;SDS011;46181;51.498;5.392;2023-05-10T16:29:01;0.116;;;0.116;;
59986;SDS011;46181;51.498;5.392;2023-05-10T16:33:31;0;;;0;;
59986;SDS011;46181;51.498;5.392;2023-05-10T16:38:01;0;;;0;;
59986;SDS011;46181;51.498;5.392;2023-05-10T16:42:31;0.112;;;0.056;;
59986;SDS011;46181;51.498;5.392;2023-05-10T16:47:01;0.008;;;0.008;;
59986;SDS011;46181;51.498;5.392;2023-05-10T16:51:31;0.072;;;0.072;;
59986;SDS011;46181;51.498;5.392;2023-05-10T16:56:01;0.208;;;0.208;;
59986;SDS011;46181;51.498;5.392;2023-05-10T17:00:31;0.056;;;0.056;;
59986;SDS011;46181;51.498;5.392;2023-05-10T17:05:01;0.18;;;0.18;;
59986;SDS011;46181;51.498;5.392;2023-05-10T17:09:31;0.1;;;0.1;;
59986;SDS011;46181;51.498;5.392;2023-05-10T17:14:01;0.544;;;0.544;;
59986;SDS011;46181;51.498;5.392;2023-05-10T17:18:31;0.104;;;0.104;;
59986;SDS011;46181;51.498;5.392;2023-05-10T17:23:01;0.1;;;0.1;;
59986;SDS011;46181;51.498;5.392;2023-05-10T17:27:31;0.1;;;0.1;;
59986;SDS011;46181;51.498;5.392;2023-05-10T17:32:01;0;;;0;;
59986;SDS011;46181;51.498;5.392;2023-05-10T17:36:31;0.056;;;0.056;;
59986;SDS011;46181;51.498;5.392;2023-05-10T17:41:01;0.1;;;0.1;;
59986;SDS011;46181;51.498;5.392;2023-05-10T17:45:31;0.092;;;0.092;;
59986;SDS011;46181;51.498;5.392;2023-05-10T17:50:01;0.1;;;0.1;;
59986;SDS011;46181;51.498;5.392;2023-05-10T17:54:31;0.008;;;0.008;;
59986;SDS011;46181;51.498;5.392;2023-05-10T17:59:01;0.1;;;0.1;;
59986;SDS011;46181;51.498;5.392;2023-05-10T18:03:31;0.1;;;0.1;;
59986;SDS011;46181;51.498;5.392;2023-05-10T18:08:01;0;;;0;;
59986;SDS011;46181;51.498;5.392;2023-05-10T18:12:31;0;;;0;;
59986;SDS011;46181;51.498;5.392;2023-05-10T18:17:01;0.12;;;0.1;;
59986;SDS011;46181;51.498;5.392;2023-05-10T18:21:31;0;;;0;;
59986;SDS011;46181;51.498;5.392;2023-05-10T18:26:01;0.1;;;0.1;;
59986;SDS011;46181;51.498;5.392;2023-05-10T18:30:54;0.16;;;0.16;;
59986;SDS011;46181;51.498;5.392;2023-05-10T18:35:01;0;;;0;;
59986;SDS011;46181;51.498;5.392;2023-05-10T18:39:31;0.168;;;0.112;;
59986;SDS011;46181;51.498;5.392;2023-05-10T18:44:01;0.1;;;0.1;;
59986;SDS011;46181;51.498;5.392;2023-05-10T18:48:31;0.14;;;0.14;;
59986;SDS011;46181;51.498;5.392;2023-05-10T18:53:01;0.116;;;0.116;;
59986;SDS011;46181;51.498;5.392;2023-05-10T18:57:31;0.1;;;0.1;;
59986;SDS011;46181;51.498;5.392;2023-05-10T19:02:01;0.1;;;0.1;;
59986;SDS011;46181;51.498;5.392;2023-05-10T19:06:31;0;;;0;;
59986;SDS011;46181;51.498;5.392;2023-05-10T19:11:01;0.08;;;0.08;;
59986;SDS011;46181;51.498;5.392;2023-05-10T19:15:31;0.1;;;0.1;;
59986;SDS011;46181;51.498;5.392;2023-05-10T19:20:01;0.1;;;0.1;;
59986;SDS011;46181;51.498;5.392;2023-05-10T19:24:31;0.096;;;0.096;;
59986;SDS011;46181;51.498;5.392;2023-05-10T19:29:01;0.032;;;0.032;;
59986;SDS011;46181;51.498;5.392;2023-05-10T19:33:31;0;;;0;;
59986;SDS011;46181;51.498;5.392;2023-05-10T19:38:01;0.04;;;0.04;;
59986;SDS011;46181;51.498;5.392;2023-05-10T19:42:31;0.1;;;0.1;;
59986;SDS011;46181;51.498;5.392;2023-05-10T19:47:01;0.024;;;0.024;;
59986;SDS011;46181;51.498;5.392;2023-05-10T19:51:31;0.1;;;0.1;;
59986;SDS011;46181;51.498;5.392;2023-05-10T19:56:05;0.1;;;0.1;;
59986;SDS011;46181;51.498;5.392;2023-05-10T20:00:31;0.1;;;0.1;;
59986;SDS011;46181;51.498;5.392;2023-05-10T20:05:01;0.004;;;0.004;;
59986;SDS011;46181;51.498;5.392;2023-05-10T20:09:31;0.16;;;0.16;;
59986;SDS011;46181;51.498;5.392;2023-05-10T20:14:02;0.1;;;0.1;;
59986;SDS011;46181;51.498;5.392;2023-05-10T20:18:31;0.016;;;0.016;;
59986;SDS011;46181;51.498;5.392;2023-05-10T20:23:01;0;;;0;;
59986;SDS011;46181;51.498;5.392;2023-05-10T20:27:31;0;;;0;;
59986;SDS011;46181;51.498;5.392;2023-05-10T20:32:01;0;;;0;;
59986;SDS011;46181;51.498;5.392;2023-05-10T20:36:31;0.008;;;0.008;;
59986;SDS011;46181;51.498;5.392;2023-05-10T20:41:01;0.016;;;0.016;;
59986;SDS011;46181;51.498;5.392;2023-05-10T20:45:31;0.1;;;0.1;;
59986;SDS011;46181;51.498;5.392;2023-05-10T20:50:01;0.016;;;0.016;;
59986;SDS011;46181;51.498;5.392;2023-05-10T20:54:31;0.1;;;0.1;;
59986;SDS011;46181;51.498;5.392;2023-05-10T20:59:01;0.072;;;0.072;;
59986;SDS011;46181;51.498;5.392;2023-05-10T21:03:31;0.1;;;0.1;;
59986;SDS011;46181;51.498;5.392;2023-05-10T21:08:01;0.1;;;0.1;;
59986;SDS011;46181;51.498;5.392;2023-05-10T21:12:31;0.1;;;0.1;;
59986;SDS011;46181;51.498;5.392;2023-05-10T21:17:01;0.112;;;0.1;;
59986;SDS011;46181;51.498;5.392;2023-05-10T21:21:31;0.016;;;0.016;;
59986;SDS011;46181;51.498;5.392;2023-05-10T21:26:01;0.072;;;0.072;;
59986;SDS011;46181;51.498;5.392;2023-05-10T21:30:31;0.08;;;0.08;;
59986;SDS011;46181;51.498;5.392;2023-05-10T21:35:01;0.016;;;0.016;;
59986;SDS011;46181;51.498;5.392;2023-05-10T21:39:31;0.1;;;0.1;;
59986;SDS011;46181;51.498;5.392;2023-05-10T21:44:01;0.3;;;0.3;;
59986;SDS011;46181;51.498;5.392;2023-05-10T21:48:31;0.464;;;0.464;;
59986;SDS011;46181;51.498;5.392;2023-05-10T21:53:01;0.1;;;0.1;;
59986;SDS011;46181;51.498;5.392;2023-05-10T21:57:31;0;;;0;;
59986;SDS011;46181;51.498;5.392;2023-05-10T22:02:01;0.336;;;0.2;;
59986;SDS011;46181;51.498;5.392;2023-05-10T22:06:31;0;;;0;;
59986;SDS011;46181;51.498;5.392;2023-05-10T22:11:01;0.172;;;0.172;;
59986;SDS011;46181;51.498;5.392;2023-05-10T22:15:31;0.092;;;0.092;;
59986;SDS011;46181;51.498;5.392;2023-05-10T22:20:01;0.072;;;0.072;;
59986;SDS011;46181;51.498;5.392;2023-05-10T22:24:31;0.1;;;0.1;;
59986;SDS011;46181;51.498;5.392;2023-05-10T22:29:01;0.1;;;0.1;;
59986;SDS011;46181;51.498;5.392;2023-05-10T22:33:31;0;;;0;;
59986;SDS011;46181;51.498;5.392;2023-05-10T22:38:01;0;;;0;;
59986;SDS011;46181;51.498;5.392;2023-05-10T22:42:31;0;;;0;;
59986;SDS011;46181;51.498;5.392;2023-05-10T22:47:01;0.1;;;0.1;;
59986;SDS011;46181;51.498;5.392;2023-05-10T22:51:31;0.1;;;0.1;;
59986;SDS011;46181;51.498;5.392;2023-05-10T22:56:01;0.572;;;0.436;;
59986;SDS011;46181;51.498;5.392;2023-05-10T23:00:32;0.244;;;0.244;;
59986;SDS011;46181;51.498;5.392;2023-05-10T23:05:01;2.468;;;0.564;;
59986;SDS011;46181;51.498;5.392;2023-05-10T23:09:31;0.2;;;0.2;;
59986;SDS011;46181;51.498;5.392;2023-05-10T23:14:01;0.1;;;0.1;;
59986;SDS011;46181;51.498;5.392;2023-05-10T23:18:31;0.212;;;0.2;;
59986;SDS011;46181;51.498;5.392;2023-05-10T23:23:01;0.004;;;0.004;;
59986;SDS011;46181;51.498;5.392;2023-05-10T23:27:31;0.052;;;0.052;;
59986;SDS011;46181;51.498;5.392;2023-05-10T23:32:01;0.22;;;0.22;;
59986;SDS011;46181;51.498;5.392;2023-05-10T23:36:31;0.08;;;0.08;;
59986;SDS011;46181;51.498;5.392;2023-05-10T23:41:01;0.1;;;0.1;;
59986;SDS011;46181;51.498;5.392;2023-05-10T23:45:31;0.1;;;0.1;;
59986;SDS011;46181;51.498;5.392;2023-05-10T23:50:01;0.1;;;0.1;;
59986;SDS011;46181;51.498;5.392;2023-05-10T23:54:31;0.1;;;0.1;;
59986;SDS011;46181;51.498;5.392;2023-05-10T23:59:01;0.1;;;0.1;;
